createdAt,value
2018-11-14T00:00:47.570Z,10.20
2018-11-14T00:03:16.706Z,10.20
2018-11-14T00:05:45.865Z,10.30
2018-11-14T00:08:14.899Z,10.30
2018-11-14T00:10:45.064Z,10.40
2018-11-14T00:13:13.927Z,10.40
2018-11-14T00:15:42.761Z,10.40
2018-11-14T00:18:12.083Z,10.30
2018-11-14T00:20:41.670Z,10.20
2018-11-14T00:23:11.605Z,10.20
2018-11-14T00:25:40.605Z,10.20
2018-11-14T00:28:09.567Z,10.10
2018-11-14T00:30:39.129Z,10.10
2018-11-14T00:33:09.966Z,10.00
2018-11-14T00:35:39.757Z,10.00
2018-11-14T00:38:08.523Z,9.90
2018-11-14T00:40:38.428Z,9.90
2018-11-14T00:43:09.065Z,9.90
2018-11-14T00:45:38.785Z,9.90
2018-11-14T00:48:07.892Z,9.90
2018-11-14T00:50:36.912Z,9.90
2018-11-14T00:53:38.015Z,9.90
2018-11-14T00:56:07.872Z,9.80
2018-11-14T00:58:36.969Z,9.90
2018-11-14T01:01:08.264Z,9.90
2018-11-14T01:03:38.338Z,9.90
2018-11-14T01:06:08.046Z,9.90
2018-11-14T01:08:43.133Z,9.90
2018-11-14T01:11:12.355Z,9.80
2018-11-14T01:13:43.619Z,9.70
2018-11-14T01:16:14.317Z,9.60
2018-11-14T01:18:43.431Z,9.60
2018-11-14T01:21:13.173Z,9.60
2018-11-14T01:23:43.667Z,9.60
2018-11-14T01:26:16.479Z,9.60
2018-11-14T01:28:48.861Z,9.60
2018-11-14T01:31:18.069Z,9.50
2018-11-14T01:33:48.032Z,9.50
2018-11-14T01:36:17.273Z,9.50
2018-11-14T01:38:47.325Z,9.60
2018-11-14T01:41:17.756Z,9.60
2018-11-14T01:43:54.905Z,9.60
2018-11-14T01:46:24.473Z,9.60
2018-11-14T01:48:54.469Z,9.60
2018-11-14T01:51:25.714Z,9.60
2018-11-14T01:53:56.406Z,9.60
2018-11-14T01:56:27.733Z,9.60
2018-11-14T01:59:00.264Z,9.60
2018-11-14T02:01:30.791Z,9.60
2018-11-14T02:04:00.082Z,9.60
2018-11-14T02:06:29.608Z,9.60
2018-11-14T02:08:58.602Z,9.60
2018-11-14T02:11:28.691Z,9.60
2018-11-14T02:13:57.762Z,9.60
2018-11-14T02:16:29.714Z,9.60
2018-11-14T02:19:02.795Z,9.60
2018-11-14T02:21:33.047Z,9.60
2018-11-14T02:24:11.441Z,9.60
2018-11-14T02:26:42.406Z,9.70
2018-11-14T02:29:12.743Z,9.60
2018-11-14T02:31:42.682Z,9.60
2018-11-14T02:34:14.006Z,9.60
2018-11-14T02:36:43.822Z,9.50
2018-11-14T02:39:12.878Z,9.40
2018-11-14T02:41:43.316Z,9.40
2018-11-14T02:44:12.595Z,9.30
2018-11-14T02:46:41.599Z,9.20
2018-11-14T02:49:10.678Z,9.20
2018-11-14T02:51:42.578Z,9.20
2018-11-14T02:54:27.362Z,9.20
2018-11-14T02:56:56.787Z,9.10
2018-11-14T02:59:27.662Z,9.10
2018-11-14T03:01:57.534Z,9.10
2018-11-14T03:04:27.518Z,9.10
2018-11-14T03:06:57.368Z,9.00
2018-11-14T03:09:28.498Z,8.90
2018-11-14T03:11:58.725Z,8.90
2018-11-14T03:14:28.132Z,8.80
2018-11-14T03:16:58.572Z,8.70
2018-11-14T03:19:27.654Z,8.70
2018-11-14T03:21:56.728Z,8.70
2018-11-14T03:24:25.679Z,8.70
2018-11-14T03:26:55.305Z,8.70
2018-11-14T03:29:28.390Z,8.60
2018-11-14T03:31:58.144Z,8.60
2018-11-14T03:34:26.984Z,8.60
2018-11-14T03:36:56.534Z,8.60
2018-11-14T03:39:27.080Z,8.60
2018-11-14T03:41:56.223Z,8.60
2018-11-14T03:44:25.112Z,8.60
2018-11-14T03:47:03.034Z,8.60
2018-11-14T03:49:32.970Z,8.60
2018-11-14T03:52:02.098Z,8.60
2018-11-14T03:54:31.194Z,8.60
2018-11-14T03:57:00.525Z,8.70
2018-11-14T03:59:29.706Z,8.70
2018-11-14T04:01:59.496Z,8.70
2018-11-14T04:04:35.494Z,8.70
2018-11-14T04:07:07.849Z,8.80
2018-11-14T04:09:37.477Z,8.80
2018-11-14T04:12:06.843Z,8.90
2018-11-14T04:14:35.997Z,8.90
2018-11-14T04:17:06.364Z,8.90
2018-11-14T04:19:35.584Z,9.00
2018-11-14T04:22:11.168Z,8.90
2018-11-14T04:24:40.774Z,8.90
2018-11-14T04:27:10.318Z,9.00
2018-11-14T04:29:39.592Z,9.00
2018-11-14T04:32:10.380Z,9.00
2018-11-14T04:34:39.664Z,9.10
2018-11-14T04:37:10.376Z,9.10
2018-11-14T04:39:45.734Z,9.10
2018-11-14T04:42:15.658Z,9.20
2018-11-14T04:44:44.733Z,9.10
2018-11-14T04:47:17.412Z,9.10
2018-11-14T04:49:48.472Z,9.10
2018-11-14T04:52:19.630Z,9.10
2018-11-14T04:54:49.226Z,9.10
2018-11-14T04:57:24.891Z,9.00
2018-11-14T04:59:53.814Z,9.00
2018-11-14T05:02:23.434Z,9.00
2018-11-14T05:04:52.972Z,9.00
2018-11-14T05:07:23.826Z,8.90
2018-11-14T05:09:52.878Z,8.90
2018-11-14T05:12:23.959Z,8.80
2018-11-14T05:14:56.112Z,8.80
2018-11-14T05:17:25.243Z,8.70
2018-11-14T05:19:54.276Z,8.70
2018-11-14T05:22:23.312Z,8.70
2018-11-14T05:24:53.589Z,8.60
2018-11-14T05:27:25.712Z,8.60
2018-11-14T05:29:57.019Z,8.50
2018-11-14T05:32:34.806Z,8.50
2018-11-14T05:35:05.539Z,8.50
2018-11-14T05:37:36.213Z,8.50
2018-11-14T05:40:06.616Z,8.50
2018-11-14T05:42:46.087Z,8.40
2018-11-14T05:45:20.914Z,8.40
2018-11-14T05:47:52.302Z,8.40
2018-11-14T05:50:22.762Z,8.40
2018-11-14T05:52:55.000Z,8.30
2018-11-14T05:55:24.624Z,8.30
2018-11-14T05:57:55.688Z,8.30
2018-11-14T06:00:30.219Z,8.20
2018-11-14T06:03:02.580Z,8.20
2018-11-14T06:05:37.297Z,8.20
2018-11-14T06:08:08.020Z,8.20
2018-11-14T06:10:42.366Z,8.10
2018-11-14T06:13:12.566Z,8.10
2018-11-14T06:15:41.733Z,8.10
2018-11-14T06:18:13.161Z,8.10
2018-11-14T06:20:43.739Z,8.00
2018-11-14T06:23:13.477Z,8.00
2018-11-14T06:25:43.390Z,7.90
2018-11-14T06:28:13.469Z,7.90
2018-11-14T06:30:44.657Z,7.90
2018-11-14T06:33:15.318Z,7.80
2018-11-14T06:35:44.867Z,7.80
2018-11-14T06:38:18.147Z,7.80
2018-11-14T06:40:47.242Z,7.80
2018-11-14T06:43:16.148Z,7.90
2018-11-14T06:45:46.883Z,7.90
2018-11-14T06:48:16.159Z,7.80
2018-11-14T06:50:45.161Z,7.80
2018-11-14T06:53:14.059Z,7.80
2018-11-14T06:55:43.632Z,7.70
2018-11-14T06:58:13.263Z,7.70
2018-11-14T07:00:42.928Z,7.70
2018-11-14T07:03:12.418Z,7.60
2018-11-14T07:05:41.594Z,7.60
2018-11-14T07:10:47.005Z,7.60
2018-11-14T07:13:16.280Z,7.60
2018-11-14T07:15:45.224Z,7.50
2018-11-14T07:18:14.262Z,7.50
2018-11-14T07:20:45.632Z,7.50
2018-11-14T07:23:14.489Z,7.50
2018-11-14T07:25:43.600Z,7.50
2018-11-14T07:28:12.490Z,7.50
2018-11-14T07:30:41.572Z,7.50
2018-11-14T07:33:11.374Z,7.50
2018-11-14T07:35:48.225Z,7.50
2018-11-14T07:38:32.554Z,7.50
2018-11-14T07:44:37.326Z,7.50
2018-11-14T07:47:06.274Z,7.40
2018-11-14T07:49:35.344Z,7.50
2018-11-14T07:52:04.346Z,7.50
2018-11-14T07:54:34.048Z,7.50
2018-11-14T07:57:04.426Z,7.50
2018-11-14T07:59:34.947Z,7.50
2018-11-14T08:02:10.231Z,7.60
2018-11-14T08:04:39.078Z,7.60
2018-11-14T08:07:11.003Z,7.70
2018-11-14T08:09:40.573Z,7.70
2018-11-14T08:12:09.619Z,7.80
2018-11-14T08:14:38.536Z,7.90
2018-11-14T08:17:13.825Z,7.90
2018-11-14T08:19:42.837Z,7.90
2018-11-14T08:22:11.861Z,8.00
2018-11-14T08:24:42.141Z,8.00
2018-11-14T08:27:11.075Z,8.10
2018-11-14T08:29:40.682Z,8.10
2018-11-14T08:32:09.578Z,8.20
2018-11-14T08:34:38.741Z,8.20
2018-11-14T08:37:08.382Z,8.20
2018-11-14T08:39:37.942Z,8.30
2018-11-14T08:42:07.238Z,8.40
2018-11-14T08:44:36.056Z,8.40
2018-11-14T08:47:05.942Z,8.40
2018-11-14T08:49:34.683Z,8.50
2018-11-14T08:52:03.755Z,8.60
2018-11-14T08:54:32.815Z,8.60
2018-11-14T08:57:01.909Z,8.70
2018-11-14T08:59:30.957Z,8.70
2018-11-14T09:02:00.072Z,8.80
2018-11-14T09:04:28.897Z,8.80
2018-11-14T09:06:57.792Z,8.90
2018-11-14T09:09:28.321Z,8.90
2018-11-14T09:11:58.279Z,9.00
2018-11-14T09:14:27.295Z,9.00
2018-11-14T09:16:57.210Z,9.00
2018-11-14T09:19:27.758Z,9.10
2018-11-14T09:21:56.694Z,9.10
2018-11-14T09:24:26.580Z,9.10
2018-11-14T09:26:57.503Z,9.20
2018-11-14T09:29:26.400Z,9.20
2018-11-14T09:31:55.546Z,9.30
2018-11-14T09:34:25.263Z,9.40
2018-11-14T09:36:54.131Z,9.40
2018-11-14T09:39:23.045Z,9.50
2018-11-14T09:41:52.059Z,9.50
2018-11-14T09:44:21.240Z,9.60
2018-11-14T09:46:50.165Z,9.60
2018-11-14T09:49:19.734Z,9.70
2018-11-14T09:51:48.688Z,9.70
2018-11-14T09:54:17.936Z,9.80
2018-11-14T09:56:46.787Z,9.80
2018-11-14T09:59:15.560Z,9.90
2018-11-14T10:01:44.456Z,10.00
2018-11-14T10:04:13.653Z,10.10
2018-11-14T10:06:43.041Z,10.10
2018-11-14T10:09:13.353Z,10.20
2018-11-14T10:11:42.189Z,10.30
2018-11-14T10:14:11.729Z,10.30
2018-11-14T10:16:40.644Z,10.30
2018-11-14T10:19:10.944Z,10.40
2018-11-14T10:21:47.051Z,10.50
2018-11-14T10:24:18.598Z,10.60
2018-11-14T10:26:48.843Z,10.70
2018-11-14T10:29:21.824Z,10.70
2018-11-14T10:32:06.452Z,10.70
2018-11-14T10:34:35.520Z,10.80
2018-11-14T10:37:04.395Z,10.90
2018-11-14T10:39:33.175Z,10.90
2018-11-14T10:42:02.129Z,11.00
2018-11-14T10:44:30.982Z,11.10
2018-11-14T10:47:00.081Z,11.10
2018-11-14T10:49:31.353Z,11.20
2018-11-14T10:52:00.385Z,11.20
2018-11-14T10:54:29.288Z,11.30
2018-11-14T10:56:58.564Z,11.40
2018-11-14T10:59:29.184Z,11.50
2018-11-14T11:02:04.385Z,11.50
2018-11-14T11:04:38.802Z,11.60
2018-11-14T11:07:15.309Z,11.60
2018-11-14T11:09:49.603Z,11.70
2018-11-14T11:12:24.930Z,11.90
2018-11-14T11:14:59.662Z,12.00
2018-11-14T11:17:33.783Z,12.10
2018-11-14T11:20:04.173Z,12.10
2018-11-14T11:22:34.417Z,12.20
2018-11-14T11:25:03.734Z,12.40
2018-11-14T11:27:34.287Z,12.50
2018-11-14T11:30:03.685Z,12.60
2018-11-14T11:32:34.803Z,12.70
2018-11-14T11:35:03.975Z,12.80
2018-11-14T11:37:36.948Z,12.80
2018-11-14T11:40:09.188Z,13.10
2018-11-14T11:42:42.882Z,13.00
2018-11-14T11:45:15.567Z,13.30
2018-11-14T11:47:48.820Z,13.30
2018-11-14T11:50:21.891Z,13.30
2018-11-14T11:52:50.969Z,13.30
2018-11-14T11:55:21.905Z,13.20
2018-11-14T11:57:52.104Z,13.00
2018-11-14T12:00:22.943Z,13.00
2018-11-14T12:02:56.294Z,12.90
2018-11-14T12:05:26.778Z,12.80
2018-11-14T12:07:57.072Z,12.70
2018-11-14T12:10:28.340Z,12.60
2018-11-14T12:12:57.416Z,12.60
2018-11-14T12:15:28.230Z,12.60
2018-11-14T12:17:58.004Z,12.60
2018-11-14T12:20:27.179Z,12.60
2018-11-14T12:22:56.624Z,12.60
2018-11-14T12:25:25.781Z,12.50
2018-11-14T12:27:55.468Z,12.60
2018-11-14T12:30:25.311Z,12.80
2018-11-14T12:32:55.079Z,12.90
2018-11-14T12:35:26.236Z,13.10
2018-11-14T12:37:56.172Z,13.10
2018-11-14T12:40:25.299Z,13.10
2018-11-14T12:42:55.059Z,13.10
2018-11-14T12:45:25.304Z,13.20
2018-11-14T12:47:54.867Z,13.20
2018-11-14T12:50:24.132Z,13.30
2018-11-14T12:52:54.617Z,13.30
2018-11-14T12:55:23.915Z,13.60
2018-11-14T12:57:53.070Z,13.60
2018-11-14T13:00:22.997Z,13.70
2018-11-14T13:02:52.021Z,13.50
2018-11-14T13:05:23.355Z,13.30
2018-11-14T13:07:52.285Z,13.20
2018-11-14T13:10:22.360Z,13.00
2018-11-14T13:19:38.589Z,12.90
2018-11-14T13:28:55.401Z,12.60
2018-11-14T13:31:27.089Z,12.60
2018-11-14T13:33:57.960Z,12.60
2018-11-14T13:36:28.230Z,12.50
2018-11-14T13:39:02.036Z,12.50
2018-11-14T13:41:31.076Z,12.50
2018-11-14T13:44:01.337Z,12.50
2018-11-14T13:46:30.310Z,12.40
2018-11-14T13:49:00.338Z,12.40
2018-11-14T13:51:32.359Z,12.40
2018-11-14T13:54:02.856Z,12.40
2018-11-14T13:56:32.997Z,12.40
2018-11-14T13:59:02.065Z,12.40
2018-11-14T14:01:33.062Z,12.40
2018-11-14T14:04:15.923Z,12.40
2018-11-14T14:06:52.077Z,12.40
2018-11-14T14:09:22.693Z,12.40
2018-11-14T14:11:52.891Z,12.50
2018-11-14T14:14:25.784Z,12.50
2018-11-14T14:16:57.218Z,12.70
2018-11-14T14:19:28.587Z,12.80
2018-11-14T14:22:00.333Z,12.90
2018-11-14T14:24:34.843Z,13.00
2018-11-14T14:27:07.173Z,13.20
2018-11-14T14:29:38.805Z,13.20
2018-11-14T14:32:11.145Z,13.20
2018-11-14T14:34:49.329Z,13.20
2018-11-14T14:37:20.271Z,13.30
2018-11-14T14:39:49.252Z,13.30
2018-11-14T14:42:18.328Z,13.20
2018-11-14T14:44:48.198Z,13.20
2018-11-14T14:47:17.888Z,13.20
2018-11-14T14:49:48.196Z,13.10
2018-11-14T14:52:17.799Z,13.10
2018-11-14T14:54:46.803Z,13.10
2018-11-14T14:57:17.727Z,13.00
2018-11-14T14:59:48.012Z,12.90
2018-11-14T15:02:21.426Z,12.90
2018-11-14T15:04:55.144Z,12.80
2018-11-14T15:07:25.277Z,12.80
2018-11-14T15:09:54.207Z,12.70
2018-11-14T15:12:23.769Z,12.70
2018-11-14T15:14:52.849Z,12.60
2018-11-14T15:17:22.314Z,12.50
2018-11-14T15:19:51.143Z,12.40
2018-11-14T15:22:19.962Z,12.30
2018-11-14T15:24:50.075Z,12.20
2018-11-14T15:27:19.009Z,12.10
2018-11-14T15:29:47.870Z,12.00
2018-11-14T15:32:17.098Z,11.80
2018-11-14T15:34:47.667Z,11.80
2018-11-14T15:37:17.890Z,11.70
2018-11-14T15:39:48.098Z,11.60
2018-11-14T15:42:47.989Z,11.60
2018-11-14T15:45:18.820Z,11.60
2018-11-14T15:48:16.834Z,11.40
2018-11-14T15:50:45.855Z,11.40
2018-11-14T15:53:15.612Z,11.30
2018-11-14T15:55:46.390Z,11.30
2018-11-14T15:58:16.706Z,11.20
2018-11-14T16:00:46.132Z,11.20
2018-11-14T16:03:17.234Z,11.10
2018-11-14T16:05:46.640Z,11.00
2018-11-14T16:08:15.416Z,10.90
2018-11-14T16:10:45.192Z,10.90
2018-11-14T16:13:14.111Z,10.80
2018-11-14T16:15:43.599Z,10.70
2018-11-14T16:18:13.503Z,10.60
2018-11-14T16:20:42.809Z,10.60
2018-11-14T16:29:57.480Z,10.40
2018-11-14T16:36:11.946Z,10.20
2018-11-14T16:52:10.594Z,9.80
2018-11-14T16:55:09.264Z,9.60
2018-11-14T17:02:38.674Z,9.50
2018-11-14T17:06:10.465Z,9.40
2018-11-14T17:09:10.952Z,9.40
2018-11-14T17:12:00.162Z,9.30
2018-11-14T17:18:15.540Z,9.20
2018-11-14T17:34:32.644Z,9.00
2018-11-14T17:37:01.712Z,8.80
2018-11-14T17:39:30.474Z,8.80
2018-11-14T17:41:59.653Z,8.70
2018-11-14T17:44:28.326Z,8.70
2018-11-14T17:46:57.111Z,8.70
2018-11-14T17:49:25.909Z,8.70
2018-11-14T17:51:54.720Z,8.60
2018-11-14T17:54:23.695Z,8.60
2018-11-14T17:56:53.259Z,8.60
2018-11-14T17:59:22.052Z,8.60
2018-11-14T18:01:51.000Z,8.60
2018-11-14T18:04:19.831Z,8.50
2018-11-14T18:06:52.685Z,8.50
2018-11-14T18:09:21.676Z,8.50
2018-11-14T18:11:51.634Z,8.40
2018-11-14T18:14:20.450Z,8.50
2018-11-14T18:16:49.404Z,8.50
2018-11-14T18:19:19.648Z,8.40
2018-11-14T18:21:49.442Z,8.40
2018-11-14T18:24:18.882Z,8.40
2018-11-14T18:26:55.367Z,8.40
2018-11-14T18:29:26.489Z,8.30
2018-11-14T18:32:03.804Z,8.30
2018-11-14T18:34:34.915Z,8.30
2018-11-14T18:37:03.922Z,8.40
2018-11-14T18:39:36.060Z,8.40
2018-11-14T18:45:40.555Z,8.30
2018-11-14T18:48:09.621Z,8.30
2018-11-14T18:50:38.736Z,8.20
2018-11-14T18:53:09.470Z,8.20
2018-11-14T18:55:40.951Z,8.20
2018-11-14T18:58:17.692Z,8.10
2018-11-14T19:00:49.909Z,8.10
2018-11-14T19:03:20.689Z,8.10
2018-11-14T19:05:54.098Z,8.10
2018-11-14T19:08:27.234Z,8.00
2018-11-14T19:10:59.880Z,8.00
2018-11-14T19:13:31.868Z,8.00
2018-11-14T19:16:06.460Z,7.90
2018-11-14T19:18:48.936Z,7.90
2018-11-14T19:21:18.342Z,7.90
2018-11-14T19:23:48.939Z,7.90
2018-11-14T19:26:20.889Z,7.80
2018-11-14T19:28:50.244Z,7.80
2018-11-14T19:31:22.413Z,7.80
2018-11-14T19:33:51.705Z,7.70
2018-11-14T19:36:26.619Z,7.80
2018-11-14T19:38:56.898Z,7.70
2018-11-14T19:44:37.239Z,7.60
2018-11-14T19:47:08.284Z,7.60
2018-11-14T19:52:34.233Z,7.70
2018-11-14T19:55:03.445Z,7.60
2018-11-14T19:57:32.695Z,7.60
2018-11-14T20:00:03.551Z,7.60
2018-11-14T20:02:33.389Z,7.60
2018-11-14T20:05:08.020Z,7.60
2018-11-14T20:07:39.486Z,7.60
2018-11-14T20:10:12.482Z,7.60
2018-11-14T20:12:41.993Z,7.60
2018-11-14T20:15:18.838Z,7.60
2018-11-14T20:17:52.532Z,7.60
2018-11-14T20:20:22.966Z,7.60
2018-11-14T20:22:52.001Z,7.50
2018-11-14T20:25:20.941Z,7.40
2018-11-14T20:27:50.734Z,7.40
2018-11-14T20:30:22.967Z,7.40
2018-11-14T20:32:52.928Z,7.40
2018-11-14T20:35:23.575Z,7.30
2018-11-14T20:37:53.542Z,7.30
2018-11-14T20:43:34.498Z,7.20
2018-11-14T20:46:04.014Z,7.20
2018-11-14T20:48:33.036Z,7.10
2018-11-14T20:51:04.456Z,7.10
2018-11-14T20:53:34.065Z,7.10
2018-11-14T20:56:03.612Z,7.10
2018-11-14T20:58:32.527Z,7.10
2018-11-14T21:01:02.337Z,7.10
2018-11-14T21:03:31.449Z,7.10
2018-11-14T21:06:10.095Z,7.10
2018-11-14T21:08:40.332Z,7.10
2018-11-14T21:11:16.195Z,7.10
2018-11-14T21:20:00.433Z,7.10
2018-11-14T21:22:32.564Z,7.20
2018-11-14T21:25:03.362Z,7.20
2018-11-14T21:27:32.627Z,7.10
2018-11-14T21:30:12.185Z,7.10
2018-11-14T21:32:48.856Z,7.10
2018-11-14T21:35:20.533Z,7.20
2018-11-14T21:37:54.361Z,7.10
2018-11-14T21:40:40.928Z,7.20
2018-11-14T21:43:10.343Z,7.20
2018-11-14T21:45:43.636Z,7.20
2018-11-14T21:48:16.640Z,7.20
2018-11-14T21:50:52.993Z,7.20
2018-11-14T21:53:24.122Z,7.20
2018-11-14T21:55:56.193Z,7.20
2018-11-14T21:58:26.611Z,7.10
2018-11-14T22:01:06.039Z,7.10
2018-11-14T22:03:37.749Z,7.10
2018-11-14T22:06:10.672Z,7.10
2018-11-14T22:08:41.646Z,7.10
2018-11-14T22:11:15.590Z,7.10
2018-11-14T22:13:47.578Z,7.00
2018-11-14T22:16:18.107Z,7.00
2018-11-14T22:18:48.104Z,7.00
2018-11-14T22:21:19.214Z,7.00
2018-11-14T22:23:48.435Z,7.00
2018-11-14T22:26:20.540Z,7.10
2018-11-14T22:28:50.596Z,7.10
2018-11-14T22:31:19.828Z,7.10
2018-11-14T22:33:48.812Z,7.10
2018-11-14T22:36:17.764Z,7.10
2018-11-14T22:38:49.126Z,7.10
2018-11-14T22:41:22.212Z,7.00
2018-11-14T22:43:57.249Z,7.00
2018-11-14T22:46:31.190Z,7.00
2018-11-14T22:49:02.517Z,7.10
2018-11-14T22:51:37.852Z,7.10
2018-11-14T22:54:15.242Z,7.10
2018-11-14T22:56:45.925Z,7.10
2018-11-14T22:59:18.079Z,7.10
2018-11-14T23:01:47.962Z,7.10
2018-11-14T23:04:19.606Z,7.10
2018-11-14T23:06:48.596Z,7.10
2018-11-14T23:09:17.523Z,7.00
2018-11-14T23:11:47.489Z,6.90
2018-11-14T23:15:22.581Z,6.80
2018-11-14T23:17:52.465Z,6.80
2018-11-14T23:20:21.789Z,6.70
2018-11-14T23:22:51.541Z,6.70
2018-11-14T23:25:21.049Z,6.60
2018-11-14T23:27:51.935Z,6.60
2018-11-14T23:30:23.801Z,6.50
2018-11-14T23:32:53.925Z,6.40
2018-11-14T23:35:26.128Z,6.40
2018-11-14T23:37:57.251Z,6.40
2018-11-14T23:40:26.366Z,6.40
2018-11-14T23:42:57.207Z,6.40
2018-11-14T23:45:36.131Z,6.40
2018-11-14T23:48:04.876Z,6.40
2018-11-14T23:50:33.608Z,6.40
2018-11-14T23:53:03.724Z,6.40
2018-11-14T23:55:32.948Z,6.40
2018-11-14T23:58:01.847Z,6.40
